KIOK1: Medicine Lodge River, Kiowa

Data processed at Wed May 22 2019 23:50


All information presented herein is the property of the government of the United States of America and may be revised or deleted at any time without prior notice.
Dissemination of this information without the expressed written consent of the Public Affairs Office, Tulsa District U.S. Army Corps of Engineers is strictly prohibited.
These data are gathered electronically and, as presented, have not undergone any form of quality control. These data are not guaranteed to be valid or correct.
Go to home page.
Go to station list.
Go to home page.

Downstream station:


Previous Day
Next Day
Current Day
    
SHEF ID:       KIOK1     MEDICINE LODGE R NR KIOWA, KS
STATION TYPE:  
Regulating: Stage =    10.00, Flow =     5189

               PRECIP     STAGE  STAGE(2)  RIV-FLOW  BAT-LOAD
                   in        ft        ft       cfs      volt
              Ccp-Rev   Ccp-Rev   Ccp-Rev   Ccp-Rev   Ccp-Rev
(US/Central)
05/22 00:00      0.00     10.38      ----      5547     13.00
05/22 01:00      0.00     10.50      ----      5662     12.95
05/22 02:00      0.00     10.58      ----      5739     12.95
05/22 03:00      0.00     10.64      ----      5798     12.89
05/22 04:00      0.00     10.65      ----      5807     12.89
05/22 05:00      0.00     10.66      ----      5817     12.89
05/22 06:00      0.00     10.61      ----      5768     12.89
05/22 07:00      0.00     10.65      ----      5807     12.89
05/22 08:00      0.00     10.64      ----      5798     13.30
05/22 09:00      0.00     10.55      ----      5710     13.83
05/22 10:00      0.00     10.49      ----      5652     13.59
05/22 11:00      0.00     10.47      ----      5633     13.77
05/22 12:00      0.00     10.43      ----      5594     13.88
05/22 13:00      0.00     10.38      ----      5547     14.00
05/22 14:00      0.00     10.31      ----      5480     13.59
05/22 15:00      0.00     10.27      ----      5442     13.77
05/22 16:00      0.00     10.22      ----      5395     13.24
05/22 17:00      0.00     10.18      ----      5357     13.30
05/22 18:00      0.00     10.15      ----      5329     13.12
05/22 19:00      0.00     10.09      ----      5273     13.12
05/22 20:00      0.00     10.05      ----      5236     13.07
05/22 21:00      0.00     10.03      ----      5217     12.95
05/22 22:00      0.00      9.96      ----      5152     13.00
05/22 23:00      0.00      9.88      ----      5079     13.00